createdAt,value
2022-12-31T00:04:52.963Z,99209.44
2022-12-31T00:10:01.401Z,99209.75
2022-12-31T00:15:11.302Z,99209.03
2022-12-31T00:20:19.991Z,99211.31
2022-12-31T00:25:27.870Z,99211.05
2022-12-31T00:30:38.140Z,99207.35
2022-12-31T00:35:46.025Z,99207.23
2022-12-31T00:40:57.480Z,99222.55
2022-12-31T00:46:06.073Z,99222.32
2022-12-31T00:51:15.925Z,99225.99
2022-12-31T01:02:00.349Z,99218.44
2022-12-31T01:07:08.261Z,99214.38
2022-12-31T01:12:15.918Z,99203.35
2022-12-31T01:17:24.433Z,99198.91
2022-12-31T01:22:31.889Z,99198.29
2022-12-31T01:27:39.478Z,99196.02
2022-12-31T01:32:46.903Z,99196.16
2022-12-31T01:37:55.984Z,99187.71
2022-12-31T01:43:03.921Z,99184.69
2022-12-31T01:48:16.153Z,99181.05
2022-12-31T01:53:25.228Z,99185.33
2022-12-31T01:58:38.629Z,99181.66
2022-12-31T02:03:46.407Z,99187.17
2022-12-31T02:08:54.800Z,99181.14
2022-12-31T02:14:06.005Z,99177.69
2022-12-31T02:19:42.001Z,99185.63
2022-12-31T02:25:28.244Z,99194.09
2022-12-31T02:30:36.652Z,99191.35
2022-12-31T02:35:52.078Z,99185.45
2022-12-31T02:41:02.375Z,99178.67
2022-12-31T02:46:21.960Z,99181.48
2022-12-31T02:51:42.231Z,99197.60
2022-12-31T02:57:00.984Z,99186.73
2022-12-31T03:02:16.530Z,99180.43
2022-12-31T03:07:30.451Z,99187.20
2022-12-31T03:12:47.850Z,99190.20
2022-12-31T03:18:03.051Z,99183.64
2022-12-31T03:23:13.044Z,99171.95
2022-12-31T03:28:23.175Z,99162.15
2022-12-31T03:33:35.853Z,99164.52
2022-12-31T03:38:44.758Z,99154.48
2022-12-31T03:43:55.891Z,99144.33
2022-12-31T03:49:03.688Z,99139.61
2022-12-31T03:54:12.121Z,99161.30
2022-12-31T03:59:19.687Z,99173.51
2022-12-31T04:04:27.962Z,99183.07
2022-12-31T04:09:36.077Z,99188.31
2022-12-31T04:14:43.989Z,99186.67
2022-12-31T04:19:52.011Z,99187.70
2022-12-31T04:25:00.781Z,99188.29
2022-12-31T04:30:10.060Z,99199.27
2022-12-31T04:35:17.980Z,99195.23
2022-12-31T04:40:26.195Z,99189.97
2022-12-31T04:45:34.017Z,99199.17
2022-12-31T04:50:41.772Z,99201.59
2022-12-31T04:55:47.996Z,99200.26
2022-12-31T05:02:09.915Z,99211.61
2022-12-31T05:07:20.841Z,99222.24
2022-12-31T05:12:29.446Z,99233.50
2022-12-31T05:17:37.423Z,99240.81
2022-12-31T05:22:44.944Z,99241.23
2022-12-31T05:27:52.436Z,99245.42
2022-12-31T05:33:00.467Z,99236.35
2022-12-31T05:38:08.067Z,99235.41
2022-12-31T05:43:15.792Z,99237.91
2022-12-31T05:48:23.900Z,99239.29
2022-12-31T05:53:31.815Z,99230.73
2022-12-31T05:58:39.545Z,99222.90
2022-12-31T06:07:02.817Z,99214.36
2022-12-31T06:12:11.365Z,99218.89
2022-12-31T06:17:19.419Z,99229.71
2022-12-31T06:22:27.668Z,99243.77
2022-12-31T06:27:34.976Z,99247.59
2022-12-31T06:32:40.957Z,99255.38
2022-12-31T06:37:48.701Z,99260.23
2022-12-31T06:43:00.203Z,99269.38
2022-12-31T06:48:09.629Z,99272.45
2022-12-31T06:53:16.771Z,99267.63
2022-12-31T07:02:22.726Z,99286.02
2022-12-31T07:07:36.292Z,99283.64
2022-12-31T07:12:58.958Z,99284.64
2022-12-31T07:18:13.273Z,99277.35
2022-12-31T07:23:21.807Z,99275.70
2022-12-31T07:28:42.980Z,99275.79
2022-12-31T07:34:01.642Z,99290.35
2022-12-31T07:39:12.748Z,99299.95
2022-12-31T07:44:32.616Z,99302.42
2022-12-31T07:49:44.766Z,99290.70
2022-12-31T07:54:52.915Z,99283.94
2022-12-31T08:00:10.647Z,99284.35
2022-12-31T08:05:21.818Z,99305.65
2022-12-31T08:10:38.965Z,99312.20
2022-12-31T08:15:48.643Z,99312.09
2022-12-31T08:21:10.725Z,99311.58
2022-12-31T08:26:32.814Z,99304.27
2022-12-31T08:31:49.903Z,99299.64
2022-12-31T08:37:03.263Z,99292.88
2022-12-31T08:42:22.257Z,99298.81
2022-12-31T08:47:41.951Z,99304.57
2022-12-31T08:52:52.314Z,99314.30
2022-12-31T08:58:17.037Z,99312.79
2022-12-31T09:03:37.851Z,99322.30
2022-12-31T09:08:52.927Z,99326.74
2022-12-31T09:14:21.445Z,99328.02
2022-12-31T09:19:30.958Z,99321.65
2022-12-31T09:24:43.140Z,99317.66
2022-12-31T09:30:00.977Z,99311.93
2022-12-31T09:35:14.017Z,99307.02
2022-12-31T09:41:27.228Z,99305.66
2022-12-31T09:47:03.468Z,99308.36
2022-12-31T09:52:28.256Z,99311.82
2022-12-31T09:57:42.864Z,99296.45
2022-12-31T10:03:18.199Z,99299.54
2022-12-31T10:08:45.449Z,99290.02
2022-12-31T10:14:08.218Z,99289.39
2022-12-31T10:20:02.603Z,99294.19
2022-12-31T10:25:39.712Z,99304.16
2022-12-31T10:30:59.876Z,99301.48
2022-12-31T10:36:17.973Z,99295.07
2022-12-31T10:42:03.467Z,99283.98
2022-12-31T10:47:42.816Z,99273.64
2022-12-31T10:53:32.037Z,99276.95
2022-12-31T10:59:06.557Z,99276.02
2022-12-31T11:04:46.826Z,99277.48
2022-12-31T11:10:38.049Z,99284.44
2022-12-31T11:16:12.425Z,99301.02
2022-12-31T11:21:54.614Z,99303.45
2022-12-31T11:27:15.796Z,99296.39
2022-12-31T11:32:35.309Z,99289.70
2022-12-31T11:37:48.980Z,99286.02
2022-12-31T11:43:01.901Z,99290.77
2022-12-31T11:48:30.253Z,99300.84
2022-12-31T11:54:10.555Z,99303.20
2022-12-31T11:59:19.835Z,99299.37
2022-12-31T12:04:29.733Z,99298.98
2022-12-31T12:09:37.902Z,99282.70
2022-12-31T12:14:47.384Z,99283.05
2022-12-31T12:20:02.474Z,99291.59
2022-12-31T12:25:20.895Z,99288.59
2022-12-31T12:30:41.663Z,99286.70
2022-12-31T12:35:50.294Z,99280.77
2022-12-31T12:41:01.583Z,99285.09
2022-12-31T12:46:21.201Z,99279.64
2022-12-31T12:51:44.324Z,99276.51
2022-12-31T12:57:01.374Z,99273.64
2022-12-31T13:02:16.341Z,99274.20
2022-12-31T13:07:39.569Z,99273.73
2022-12-31T13:18:36.840Z,99264.52
2022-12-31T13:23:53.408Z,99273.89
2022-12-31T13:29:06.853Z,99270.02
2022-12-31T13:34:21.180Z,99268.19
2022-12-31T13:39:37.682Z,99276.31
2022-12-31T13:44:51.789Z,99266.69
2022-12-31T13:50:16.357Z,99271.87
2022-12-31T13:55:31.381Z,99276.70
2022-12-31T14:00:46.383Z,99286.71
2022-12-31T14:06:02.681Z,99296.45
2022-12-31T14:11:20.251Z,99298.61
2022-12-31T14:16:37.572Z,99290.80
2022-12-31T14:21:49.445Z,99292.70
2022-12-31T14:27:00.406Z,99295.89
2022-12-31T14:32:34.221Z,99295.10
2022-12-31T14:37:50.966Z,99306.69
2022-12-31T14:43:15.367Z,99310.70
2022-12-31T14:48:34.006Z,99307.49
2022-12-31T14:53:55.455Z,99302.26
2022-12-31T14:59:04.318Z,99302.17
2022-12-31T15:04:17.111Z,99309.66
2022-12-31T15:09:42.553Z,99315.05
2022-12-31T15:15:17.496Z,99317.70
2022-12-31T15:20:47.525Z,99317.80
2022-12-31T15:26:00.252Z,99302.96
2022-12-31T15:31:19.059Z,99303.73
2022-12-31T15:36:31.781Z,99314.70
2022-12-31T15:42:18.546Z,99329.67
2022-12-31T15:47:29.108Z,99333.28
2022-12-31T15:52:42.612Z,99338.00
2022-12-31T15:57:51.284Z,99340.08
2022-12-31T16:02:59.534Z,99333.42
2022-12-31T16:08:08.347Z,99335.01
2022-12-31T16:13:23.235Z,99339.05
2022-12-31T16:18:41.392Z,99342.08
2022-12-31T16:23:56.025Z,99343.64
2022-12-31T16:29:09.847Z,99342.96
2022-12-31T16:34:22.299Z,99351.03
2022-12-31T16:39:33.522Z,99359.31
2022-12-31T16:44:43.064Z,99360.78
2022-12-31T16:49:57.804Z,99362.35
2022-12-31T16:55:18.660Z,99366.79
2022-12-31T17:00:28.833Z,99367.58
2022-12-31T17:05:54.755Z,99376.68
2022-12-31T17:11:23.176Z,99378.39
2022-12-31T17:16:34.914Z,99365.00
2022-12-31T17:31:59.861Z,99366.02
2022-12-31T17:37:20.025Z,99360.02
2022-12-31T17:42:33.097Z,99351.61
2022-12-31T17:47:43.169Z,99360.69
2022-12-31T17:52:55.470Z,99366.92
2022-12-31T17:58:07.259Z,99370.47
2022-12-31T18:03:15.205Z,99369.17
2022-12-31T18:08:23.511Z,99368.04
2022-12-31T18:13:33.373Z,99369.76
2022-12-31T18:18:44.876Z,99372.27
2022-12-31T18:29:04.476Z,99370.64
2022-12-31T18:34:17.002Z,99375.50
2022-12-31T18:39:26.013Z,99380.21
2022-12-31T18:44:34.081Z,99379.30
2022-12-31T18:49:43.833Z,99375.67
2022-12-31T18:54:52.793Z,99374.20
2022-12-31T19:00:01.522Z,99379.27
2022-12-31T19:05:24.657Z,99379.98
2022-12-31T19:10:33.847Z,99380.89
2022-12-31T19:15:46.668Z,99380.66
2022-12-31T19:20:54.784Z,99388.44
2022-12-31T19:26:02.231Z,99401.00
2022-12-31T19:31:09.576Z,99400.38
2022-12-31T19:36:20.505Z,99393.33
2022-12-31T19:41:29.152Z,99394.23
2022-12-31T19:46:36.374Z,99397.31
2022-12-31T19:51:43.959Z,99391.70
2022-12-31T20:02:08.710Z,99404.08
2022-12-31T20:07:26.820Z,99406.79
2022-12-31T20:12:40.688Z,99406.30
2022-12-31T20:17:54.288Z,99408.03
2022-12-31T20:23:02.049Z,99404.95
2022-12-31T20:28:10.494Z,99414.84
2022-12-31T20:33:19.386Z,99417.61
2022-12-31T20:38:29.765Z,99419.41
2022-12-31T20:43:37.996Z,99440.63
2022-12-31T20:48:46.615Z,99446.29
2022-12-31T20:54:01.321Z,99445.52
2022-12-31T20:59:10.803Z,99442.60
2022-12-31T21:04:18.910Z,99431.11
2022-12-31T21:09:27.845Z,99426.07
2022-12-31T21:14:39.836Z,99421.27
2022-12-31T21:19:50.852Z,99417.09
2022-12-31T21:25:01.318Z,99422.77
2022-12-31T21:30:19.334Z,99412.17
2022-12-31T21:35:51.672Z,99406.93
2022-12-31T21:41:02.457Z,99405.30
2022-12-31T21:46:11.117Z,99400.45
2022-12-31T21:51:19.411Z,99411.17
2022-12-31T21:56:27.358Z,99412.46
2022-12-31T22:01:52.377Z,99418.45
2022-12-31T22:07:01.178Z,99419.36
2022-12-31T22:12:09.623Z,99417.70
2022-12-31T22:17:17.232Z,99416.64
2022-12-31T22:22:25.867Z,99415.87
2022-12-31T22:27:33.566Z,99413.39
2022-12-31T22:32:41.404Z,99418.64
2022-12-31T22:37:59.632Z,99418.48
2022-12-31T22:43:11.256Z,99415.88
2022-12-31T22:48:18.846Z,99411.84
2022-12-31T22:53:26.888Z,99416.09
2022-12-31T22:58:34.474Z,99414.98
2022-12-31T23:03:42.589Z,99412.98
2022-12-31T23:09:04.468Z,99414.73
2022-12-31T23:14:35.798Z,99413.56
2022-12-31T23:20:01.493Z,99412.17
2022-12-31T23:25:11.788Z,99416.44
2022-12-31T23:30:24.651Z,99419.08
2022-12-31T23:35:32.669Z,99420.02
2022-12-31T23:40:40.557Z,99417.70
2022-12-31T23:45:51.908Z,99419.27
2022-12-31T23:51:11.049Z,99424.46
2022-12-31T23:56:23.951Z,99427.75
